KMTC/MTC METAR and TAF weather

Enter ICAO airport designator
Station Type Date Time Source
KMTC METAR 2023/01/30 10:37 UTC NOAA

KMTC 301037Z AUTO 33003KT 10SM -UP BKN014 OVC025 M04/M06 A3021 RMK AO2 UPE28UPB37 CIG 014V025 BKN V SCT SLP243 $


Station Type Date Time Source
KMTC Decoded METAR 2023/01/30 10:37 UTC NOAA

Selfridge Air National Guard Base, MI, United States (KMTC) 42-37N 082-50W
Jan 30, 2023 - 05:37 AM EST / 2023.01.30 1037 UTC
Wind: from the NNW (330 degrees) at 3 MPH (3 KT):0
Visibility: 10 mile(s):0
Sky conditions: overcast
Weather: light precipitation
Temperature: 24 F (-4 C)
Dew Point: 21 F (-6 C)
Relative Humidity: 85%
Pressure (altimeter): 30.21 in. Hg (1023 hPa)
ob: KMTC 301037Z AUTO 33003KT 10SM -UP BKN014 OVC025 M04/M06 A3021 RMK AO2 UPE28UPB37 CIG 014V025 BKN V SCT SLP243
cycle: 10

Station Type Date Time Source
KMTC TAF 2023/01/29 22:34 UTC NOAA

TAF
AMD KMTC 292200Z 2922/3102 35009KT 9999 BKN020 BKN025 OVC040 620253 510063 QNH3000INS
BECMG 3014/3015 31012KT 9999 SCT015 BKN020 OVC035 620209 QNH3026INS TX00/3011Z TNM08/3007Z LAST NO
AMDS AFT 3004 NEXT 3012

Example: see airport list